Oakdale, WI (54649)

4:35 PM CDT on September 30, 2014 (GMT -0500)
Volk | Change Station
CLOSE
Current Station
Airport
Location: Volk,
Elevation: 909 ft
Nearby Weather Stations

Elev 909 ft 43.94 °N, 90.25 °W | Updated 37 minutes ago

Mostly Cloudy
Mostly Cloudy
50 °F
Feels Like 50 °F
N
6
Wind Variable Wind from SE

Today
High -- | Low -- °F
--% Chance of Precip.
Yesterday
High -- | Low -- °F
Precip. -- in
6:58 AM 6:44 PM
Waxing Crescent, 40% visible
Pressure 30.06 in
Visibility 10.0 miles
Clouds Overcast 1700 ft
Dew Point 47 °F
Humidity 89%
Rainfall 0.00 in
Snow Depth Not available.
UV 1 out of 12
Pollen 1.60 out of 12
Air Quality Not available.
Flu Activity Not available.
METAR KVOK 302058Z AUTO 14005KT 10SM OVC017 10/08 A3003 RMK AO2 SLP177 T00980081 57016

More Conditions Fewer Conditions

Pressure 30.06 in
Visibility 10.0 miles
Clouds Overcast 1700 ft
Dew Point 47 °F
Humidity 89%
Rainfall 0.00 in
Snow Depth Not available.
UV 1 out of 12
Pollen 1.60 out of 12
Air Quality Not available.
Flu Activity Not available.
METAR KVOK 302058Z AUTO 14005KT 10SM OVC017 10/08 A3003 RMK AO2 SLP177 T00980081 57016

More Conditions Fewer Conditions

10-Day Weather Forecast

Almanac

Astronomy

Sep. 30, 2014 Rise Set
Actual Time 6:58 AM CDT 6:44 PM CDT
Civil Twilight 6:29 AM CDT 7:12 PM CDT
Nautical Twilight 5:55 AM CDT 7:46 PM CDT
Astronomical Twilight 5:21 AM CDT 8:20 PM CDT
Moon 1:15 PM CDT 11:05 PM CDT
Length of Visible Light 12h 43m
Length of Day
11h 46m
Tomorrow will be 2m 59s shorter.
Waxing Crescent, 40% of the Moon is Illuminated
Today
Waxing Crescent
Oct 1
First Quarter
Oct 8
Full
Oct 15
Last Quarter
Oct 23
New

Today's Extremes

State Highs State Lows

Community

WunderPhotos

Upload Photos

1,757,755 photos uploaded!

Nearby

Snow Depth

Station Depth Elevation
No new snow has been reported.

Earthquake Activity

City Distance Mag. Time & Date
No recent earthquake activity has been reported nearby.
Minimum magnitude displayed is 2.5.

Coastal Water Temperatures

Place Temperature
No Stations Reporting

Nearby Weather Stations